Meishomaru — JD3044 — position and weather

sailwx.info

Track history (hours):
 
Tides and Currents Weather Stations Pressure Air Temp Water Temp Dewpoint Dewpoint Depression Visibility Wind Speed Wind Dir Waves Ship Positions

Meishomaru

Last reported at 2014-Dec-22 11:09 UTC. Time now 2014-Dec-22 12:03 UTC.
Position N 35°29' E 139°49'.

Length 68 m; draft 4 m.

Type: Tanker. MMSI: 431001216.

Date/timePositionNaut miles runAvg speedWind from/ knotsBaromVisibWave heightAir tempDewpointWater temp
2014-Dec-22 11:09N 35°29' E 139°49'0 0.0
2014-Dec-22 01:15N 35°29' E 139°49'0 0.0
2014-Dec-22 00:18N 35°29' E 139°49'0 0.0
2014-Dec-21 23:30N 35°29' E 139°49'0 0.0
2014-Dec-21 22:12N 35°29' E 139°49'0 0.0
2014-Dec-21 21:12N 35°29' E 139°49'0 0.1
2014-Dec-21 20:33N 35°29' E 139°49'0 0.0
2014-Dec-21 19:18N 35°29' E 139°49'0 0.0
2014-Dec-21 18:15N 35°29' E 139°49'0 0.0
2014-Dec-21 17:33N 35°29' E 139°49'0 0.0
2014-Dec-21 15:33N 35°29' E 139°49'0 0.0
2014-Dec-21 13:21N 35°29' E 139°49'0 0.0
2014-Dec-21 12:33N 35°29' E 139°49'0 0.0
2014-Dec-21 10:27N 35°29' E 139°49'0 0.1
2014-Dec-21 05:12N 35°30' E 139°49'3 0.5
2014-Dec-20 23:33N 35°30' E 139°45'3 2.8
2014-Dec-20 22:20N 35°29' E 139°49'0 0.0
2014-Dec-20 21:32N 35°29' E 139°49'0 0.0
2014-Dec-20 20:29N 35°29' E 139°49'0 0.0
2014-Dec-20 19:17N 35°29' E 139°49'0 0.1
2014-Dec-20 18:32N 35°29' E 139°49'5 5.1
2014-Dec-20 17:33N 35°25' E 139°47'1111.4
2014-Dec-20 16:33N 35°14' E 139°47'1211.0
2014-Dec-20 15:31N 35°03' E 139°42'  
2014-Dec-16 11:21N 34°37' E 135°01'8 9.5
2014-Dec-16 10:32N 34°36' E 135°10'1010.4
2014-Dec-16 09:33N 34°34' E 135°23'2 0.5
2014-Dec-16 04:29N 34°33' E 135°25'3 3.3
2014-Dec-16 03:32N 34°32' E 135°21'0 0.0
2014-Dec-16 01:15N 34°32' E 135°21'0 0.0
2014-Dec-15 22:30N 34°32' E 135°21'0 0.1
2014-Dec-15 21:30N 34°32' E 135°21'0 0.0
2014-Dec-15 20:30N 34°32' E 135°21'0 0.0
2014-Dec-15 19:18N 34°32' E 135°21'0 0.0
2014-Dec-15 16:12N 34°33' E 135°21'0 0.0
2014-Dec-15 15:18N 34°33' E 135°21'0 0.1
2014-Dec-15 14:30N 34°33' E 135°21'0 0.0
2014-Dec-15 12:30N 34°33' E 135°21'7 7.7
2014-Dec-15 11:34N 34°28' E 135°14'1211.6
2014-Dec-15 10:32N 34°21' E 135°03'1010.0
2014-Dec-15 09:33N 34°11' E 135°00'242 8.3
2014-Dec-14 04:24N 35°12' E 139°45'1011.5
2014-Dec-14 03:33N 35°21' E 139°42'1211.6
2014-Dec-14 02:33N 35°30' E 139°52'2 0.1
2014-Dec-13 12:30N 35°31' E 139°53'1111.7
2014-Dec-13 11:33N 35°22' E 139°45'1110.6
2014-Dec-13 10:33N 35°12' E 139°47'  
Track history (hours):
 
Tides and Currents Weather Stations Pressure Air Temp Water Temp Dewpoint Dewpoint Depression Visibility Wind Speed Wind Dir Waves Ship Positions

Meishomaru

Last reported at 2014-Dec-22 11:09 UTC. Time now 2014-Dec-22 12:03 UTC.
Position N 35°29' E 139°49'.

Length 68 m; draft 4 m.

Type: Tanker. MMSI: 431001216.

Date/timePositionNaut miles runAvg speedWind from/ knotsBaromVisibWave heightAir tempDewpointWater temp
2014-Dec-22 11:09N 35°29' E 139°49'0 0.0
2014-Dec-22 01:15N 35°29' E 139°49'0 0.0
2014-Dec-22 00:18N 35°29' E 139°49'0 0.0
2014-Dec-21 23:30N 35°29' E 139°49'0 0.0
2014-Dec-21 22:12N 35°29' E 139°49'0 0.0
2014-Dec-21 21:12N 35°29' E 139°49'0 0.1
2014-Dec-21 20:33N 35°29' E 139°49'0 0.0
2014-Dec-21 19:18N 35°29' E 139°49'0 0.0
2014-Dec-21 18:15N 35°29' E 139°49'0 0.0
2014-Dec-21 17:33N 35°29' E 139°49'0 0.0
2014-Dec-21 15:33N 35°29' E 139°49'0 0.0
2014-Dec-21 13:21N 35°29' E 139°49'0 0.0
2014-Dec-21 12:33N 35°29' E 139°49'0 0.0
2014-Dec-21 10:27N 35°29' E 139°49'0 0.1
2014-Dec-21 05:12N 35°30' E 139°49'3 0.5
2014-Dec-20 23:33N 35°30' E 139°45'3 2.8
2014-Dec-20 22:20N 35°29' E 139°49'0 0.0
2014-Dec-20 21:32N 35°29' E 139°49'0 0.0
2014-Dec-20 20:29N 35°29' E 139°49'0 0.0
2014-Dec-20 19:17N 35°29' E 139°49'0 0.1
2014-Dec-20 18:32N 35°29' E 139°49'5 5.1
2014-Dec-20 17:33N 35°25' E 139°47'1111.4
2014-Dec-20 16:33N 35°14' E 139°47'1211.0
2014-Dec-20 15:31N 35°03' E 139°42'  
2014-Dec-16 11:21N 34°37' E 135°01'8 9.5
2014-Dec-16 10:32N 34°36' E 135°10'1010.4
2014-Dec-16 09:33N 34°34' E 135°23'2 0.5
2014-Dec-16 04:29N 34°33' E 135°25'3 3.3
2014-Dec-16 03:32N 34°32' E 135°21'0 0.0
2014-Dec-16 01:15N 34°32' E 135°21'0 0.0
2014-Dec-15 22:30N 34°32' E 135°21'0 0.1
2014-Dec-15 21:30N 34°32' E 135°21'0 0.0
2014-Dec-15 20:30N 34°32' E 135°21'0 0.0
2014-Dec-15 19:18N 34°32' E 135°21'0 0.0
2014-Dec-15 16:12N 34°33' E 135°21'0 0.0
2014-Dec-15 15:18N 34°33' E 135°21'0 0.1
2014-Dec-15 14:30N 34°33' E 135°21'0 0.0
2014-Dec-15 12:30N 34°33' E 135°21'7 7.7
2014-Dec-15 11:34N 34°28' E 135°14'1211.6
2014-Dec-15 10:32N 34°21' E 135°03'1010.0
2014-Dec-15 09:33N 34°11' E 135°00'242 8.3
2014-Dec-14 04:24N 35°12' E 139°45'1011.5
2014-Dec-14 03:33N 35°21' E 139°42'1211.6
2014-Dec-14 02:33N 35°30' E 139°52'2 0.1
2014-Dec-13 12:30N 35°31' E 139°53'1111.7
2014-Dec-13 11:33N 35°22' E 139°45'1110.6
2014-Dec-13 10:33N 35°12' E 139°47'  

Dump ship's entire track history